Time;durP1;ratioP1;P1;durP2;ratioP2;P2;SDS_P1;SDS_P2;PMS_P1;PMS_P2;Temp;Humidity;BMP_temperature;BMP_pressure;BME280_temperature;BME280_humidity;BME280_pressure;Samples;Min_cycle;Max_cycle;Signal;HPM_P1;HPM_P2
2022/01/07 00:01:36;;;;;;;;;12.50;11.25;;;;;;;;5052879;28;45692;-69
2022/01/07 00:04:02;;;;;;;;;12.00;11.00;;;;;;;;5049959;28;45627;-67
2022/01/07 00:06:27;;;;;;;;;13.75;10.75;;;;;;;;5050642;28;45531;-69
2022/01/07 00:08:52;;;;;;;;;14.00;12.75;;;;;;;;5050968;28;45556;-70
2022/01/07 00:11:17;;;;;;;;;12.25;12.25;;;;;;;;5052465;28;45598;-71
2022/01/07 00:13:43;;;;;;;;;13.00;13.00;;;;;;;;5051731;28;45877;-70
2022/01/07 00:16:08;;;;;;;;;15.50;13.75;;;;;;;;5051971;28;45571;-69
2022/01/07 00:18:33;;;;;;;;;15.75;15.75;;;;;;;;5033824;28;45422;-70
2022/01/07 00:20:59;;;;;;;;;14.25;13.50;;;;;;;;5051993;28;45521;-68
2022/01/07 00:23:24;;;;;;;;;10.75;10.75;;;;;;;;5033371;28;47643;-70
2022/01/07 00:25:50;;;;;;;;;16.50;12.00;;;;;;;;5052737;28;45499;-73
2022/01/07 00:28:15;;;;;;;;;12.50;10.00;;;;;;;;5052166;28;45425;-69
2022/01/07 00:30:41;;;;;;;;;16.50;12.75;;;;;;;;5051837;28;45524;-69
2022/01/07 00:33:06;;;;;;;;;8.75;7.25;;;;;;;;5033268;28;47602;-68
2022/01/07 00:35:31;;;;;;;;;12.25;11.00;;;;;;;;5051856;28;45507;-68
2022/01/07 00:37:57;;;;;;;;;11.75;9.25;;;;;;;;5045823;28;45411;-70
2022/01/07 00:40:23;;;;;;;;;9.75;9.75;;;;;;;;5051907;28;45498;-68
2022/01/07 00:42:51;;;;;;;;;12.00;11.50;;;;;;;;5014989;28;46580;-69
2022/01/07 00:45:17;;;;;;;;;9.50;9.50;;;;;;;;5031180;28;45510;-69
2022/01/07 00:47:43;;;;;;;;;11.50;11.00;;;;;;;;5051714;28;45559;-68
2022/01/07 00:50:09;;;;;;;;;12.50;11.25;;;;;;;;5051652;28;45588;-67
2022/01/07 00:52:34;;;;;;;;;5.25;4.25;;;;;;;;5051315;28;45603;-68
2022/01/07 00:54:59;;;;;;;;;11.75;8.00;;;;;;;;5050008;28;45405;-68
2022/01/07 00:57:24;;;;;;;;;16.00;12.25;;;;;;;;5051401;28;45431;-68
2022/01/07 00:59:50;;;;;;;;;11.00;11.00;;;;;;;;5051631;28;46144;-69
2022/01/07 01:02:15;;;;;;;;;10.00;10.00;;;;;;;;5051575;28;45802;-68
2022/01/07 01:04:41;;;;;;;;;10.00;7.00;;;;;;;;5051948;28;45376;-70
2022/01/07 01:07:06;;;;;;;;;11.00;8.75;;;;;;;;5051330;28;45350;-71
2022/01/07 01:09:31;;;;;;;;;13.25;12.00;;;;;;;;5051569;28;45905;-70
2022/01/07 01:11:57;;;;;;;;;9.50;8.50;;;;;;;;5032943;28;47848;-70
2022/01/07 01:14:23;;;;;;;;;11.50;11.00;;;;;;;;5049854;28;45635;-70
2022/01/07 01:16:48;;;;;;;;;14.00;10.00;;;;;;;;5051048;28;45923;-70
2022/01/07 01:19:13;;;;;;;;;12.00;11.25;;;;;;;;5051138;28;47893;-69
2022/01/07 01:21:38;;;;;;;;;12.50;12.50;;;;;;;;5032832;28;47660;-68
2022/01/07 01:24:04;;;;;;;;;9.50;9.25;;;;;;;;5051007;28;45462;-66
2022/01/07 01:26:29;;;;;;;;;11.75;11.75;;;;;;;;5051391;28;45537;-68
2022/01/07 01:28:54;;;;;;;;;11.25;11.00;;;;;;;;5033349;28;45461;-69
2022/01/07 01:31:21;;;;;;;;;15.50;15.50;;;;;;;;5051344;28;46669;-70
2022/01/07 01:33:46;;;;;;;;;15.50;12.75;;;;;;;;5050809;28;45520;-69
2022/01/07 01:36:12;;;;;;;;;13.50;12.50;;;;;;;;5050242;28;45830;-70
2022/01/07 01:38:38;;;;;;;;;12.00;11.00;;;;;;;;5051208;28;45612;-70
2022/01/07 01:41:04;;;;;;;;;14.00;11.75;;;;;;;;5032713;28;47258;-67
2022/01/07 01:43:29;;;;;;;;;10.75;10.75;;;;;;;;5051258;28;45577;-66
2022/01/07 01:45:55;;;;;;;;;12.25;11.25;;;;;;;;5050978;28;45879;-69
2022/01/07 01:48:20;;;;;;;;;11.00;10.50;;;;;;;;5032945;28;45864;-70
2022/01/07 01:50:46;;;;;;;;;11.75;11.00;;;;;;;;5056661;28;46721;-69
2022/01/07 01:53:11;;;;;;;;;13.00;11.00;;;;;;;;5054581;28;45401;-67
2022/01/07 01:55:37;;;;;;;;;17.25;11.75;;;;;;;;5050710;28;45557;-69
2022/01/07 01:58:02;;;;;;;;;8.50;8.50;;;;;;;;5049056;28;45991;-68
2022/01/07 02:00:27;;;;;;;;;8.75;8.50;;;;;;;;5031690;28;48622;-68
2022/01/07 02:02:53;;;;;;;;;12.75;11.25;;;;;;;;5031484;28;45742;-67
2022/01/07 02:05:18;;;;;;;;;7.25;7.25;;;;;;;;5050835;28;45383;-68
2022/01/07 02:07:43;;;;;;;;;7.50;7.00;;;;;;;;5051089;28;46091;-68
2022/01/07 02:10:11;;;;;;;;;11.25;11.25;;;;;;;;5050860;28;46956;-68
2022/01/07 02:12:36;;;;;;;;;11.00;10.00;;;;;;;;5051013;28;45551;-69
2022/01/07 02:15:02;;;;;;;;;9.75;9.75;;;;;;;;5032985;28;45640;-67
2022/01/07 02:17:27;;;;;;;;;11.25;11.25;;;;;;;;5032625;28;45339;-68
2022/01/07 02:19:53;;;;;;;;;7.25;6.00;;;;;;;;5032490;28;47657;-67
2022/01/07 02:22:18;;;;;;;;;10.75;10.75;;;;;;;;5050413;28;45466;-67
2022/01/07 02:24:44;;;;;;;;;10.50;10.50;;;;;;;;5044096;28;45491;-69
2022/01/07 02:27:11;;;;;;;;;14.25;10.25;;;;;;;;5032022;28;45656;-65
2022/01/07 02:29:36;;;;;;;;;10.00;10.00;;;;;;;;5031899;28;49138;-69
2022/01/07 02:32:01;;;;;;;;;12.00;9.50;;;;;;;;5050282;28;45832;-68
2022/01/07 02:34:27;;;;;;;;;12.00;7.00;;;;;;;;5032579;28;45717;-68
2022/01/07 02:36:52;;;;;;;;;11.25;11.25;;;;;;;;5065150;28;45631;-68
2022/01/07 02:39:17;;;;;;;;;16.25;10.25;;;;;;;;5049819;28;45759;-68
2022/01/07 02:41:43;;;;;;;;;8.00;8.00;;;;;;;;5050277;28;45630;-66
2022/01/07 02:44:08;;;;;;;;;7.50;7.50;;;;;;;;5050047;28;45413;-68
2022/01/07 02:46:33;;;;;;;;;8.50;8.50;;;;;;;;5032037;28;45629;-69
2022/01/07 02:48:59;;;;;;;;;9.25;8.00;;;;;;;;5034381;28;47896;-69
2022/01/07 02:51:24;;;;;;;;;8.00;8.00;;;;;;;;5035160;28;46849;-68
2022/01/07 02:53:49;;;;;;;;;8.00;8.00;;;;;;;;5053897;28;45610;-69
2022/01/07 02:56:14;;;;;;;;;7.75;7.75;;;;;;;;5053522;28;45724;-69
2022/01/07 02:58:40;;;;;;;;;5.50;5.50;;;;;;;;5053993;28;46003;-68
2022/01/07 03:01:05;;;;;;;;;7.00;7.00;;;;;;;;5021412;28;46324;-67
2022/01/07 03:03:30;;;;;;;;;8.50;8.00;;;;;;;;5034940;28;46258;-69
2022/01/07 03:05:55;;;;;;;;;7.50;7.50;;;;;;;;5053030;28;46044;-68
2022/01/07 03:08:21;;;;;;;;;2.00;2.00;;;;;;;;5053089;28;46046;-68
2022/01/07 03:10:46;;;;;;;;;8.25;7.00;;;;;;;;5053637;28;45472;-68
2022/01/07 03:13:11;;;;;;;;;9.00;8.00;;;;;;;;5053179;28;45974;-69
2022/01/07 03:15:37;;;;;;;;;6.00;6.00;;;;;;;;5052958;28;45781;-70
2022/01/07 03:18:03;;;;;;;;;6.00;6.00;;;;;;;;5052984;28;45574;-66
2022/01/07 03:20:29;;;;;;;;;7.50;7.50;;;;;;;;5053025;28;45614;-70
2022/01/07 03:22:54;;;;;;;;;12.75;9.00;;;;;;;;5053101;28;45798;-67
2022/01/07 03:25:20;;;;;;;;;10.50;8.00;;;;;;;;5052515;28;45560;-69
2022/01/07 03:27:45;;;;;;;;;8.75;7.75;;;;;;;;5052363;28;45989;-70
2022/01/07 03:30:12;;;;;;;;;7.50;6.25;;;;;;;;5034496;28;46125;-69
2022/01/07 03:32:38;;;;;;;;;10.50;6.00;;;;;;;;5052593;28;45478;-69
2022/01/07 03:35:04;;;;;;;;;8.75;5.50;;;;;;;;5052735;28;45508;-68
2022/01/07 03:37:29;;;;;;;;;3.00;3.00;;;;;;;;5034653;28;47763;-68
2022/01/07 03:39:54;;;;;;;;;6.25;6.25;;;;;;;;5052549;28;45672;-68
2022/01/07 03:42:20;;;;;;;;;7.00;7.00;;;;;;;;5052759;28;45686;-71
2022/01/07 03:44:45;;;;;;;;;7.00;7.00;;;;;;;;5052576;28;45490;-69
2022/01/07 03:47:10;;;;;;;;;8.00;6.75;;;;;;;;5052084;28;46223;-69
2022/01/07 03:49:35;;;;;;;;;6.25;6.00;;;;;;;;5052806;28;45806;-71
2022/01/07 03:52:01;;;;;;;;;6.50;5.00;;;;;;;;5034097;28;45696;-69
2022/01/07 03:54:26;;;;;;;;;6.00;6.00;;;;;;;;5034194;28;45901;-68
2022/01/07 03:56:51;;;;;;;;;6.50;6.50;;;;;;;;5052245;28;45578;-67
2022/01/07 03:59:16;;;;;;;;;6.50;6.50;;;;;;;;5051651;28;45506;-68
2022/01/07 04:01:42;;;;;;;;;8.00;7.75;;;;;;;;5052753;28;45503;-70
2022/01/07 04:04:07;;;;;;;;;1.00;1.00;;;;;;;;5052047;28;45680;-68
2022/01/07 04:06:32;;;;;;;;;12.50;9.50;;;;;;;;5052203;28;46332;-68
2022/01/07 04:08:57;;;;;;;;;10.50;8.00;;;;;;;;5033801;28;46082;-67
2022/01/07 04:11:23;;;;;;;;;8.75;7.75;;;;;;;;5034216;28;45635;-68
2022/01/07 04:13:48;;;;;;;;;6.00;6.00;;;;;;;;5034749;28;45474;-69
2022/01/07 04:16:13;;;;;;;;;5.00;3.00;;;;;;;;5051825;28;45723;-70
2022/01/07 04:18:39;;;;;;;;;7.25;5.50;;;;;;;;5033442;28;46422;-69
2022/01/07 04:21:04;;;;;;;;;7.25;6.00;;;;;;;;5051966;28;45467;-69
2022/01/07 04:23:30;;;;;;;;;6.00;6.00;;;;;;;;5033969;28;45524;-68
2022/01/07 04:25:55;;;;;;;;;4.25;4.25;;;;;;;;5033295;28;48995;-67
2022/01/07 04:28:20;;;;;;;;;6.00;6.00;;;;;;;;5052182;28;45438;-69
2022/01/07 04:30:46;;;;;;;;;6.00;4.00;;;;;;;;5051901;28;45971;-68
2022/01/07 04:33:14;;;;;;;;;8.75;7.50;;;;;;;;5033463;28;45488;-69
2022/01/07 04:35:40;;;;;;;;;6.75;6.00;;;;;;;;5051685;28;46204;-70
2022/01/07 04:38:06;;;;;;;;;6.00;6.00;;;;;;;;5051866;28;46124;-67
2022/01/07 04:40:32;;;;;;;;;6.50;4.25;;;;;;;;5034414;28;45514;-71
2022/01/07 04:42:57;;;;;;;;;4.75;3.25;;;;;;;;5051666;28;45531;-69
2022/01/07 04:45:22;;;;;;;;;6.00;6.00;;;;;;;;5051526;28;46361;-68
2022/01/07 04:47:48;;;;;;;;;2.25;2.00;;;;;;;;5051683;28;45460;-69
2022/01/07 04:50:15;;;;;;;;;6.50;4.75;;;;;;;;5033888;28;45635;-68
2022/01/07 04:52:43;;;;;;;;;5.00;3.75;;;;;;;;5052354;28;45421;-69
2022/01/07 04:55:09;;;;;;;;;4.00;4.00;;;;;;;;5051446;28;45732;-68
2022/01/07 04:57:35;;;;;;;;;5.00;5.00;;;;;;;;5051299;28;45544;-67
2022/01/07 05:00:00;;;;;;;;;7.75;4.25;;;;;;;;5051397;28;45404;-67
2022/01/07 05:02:27;;;;;;;;;4.00;4.00;;;;;;;;5051515;28;45784;-67
2022/01/07 05:04:53;;;;;;;;;3.75;3.75;;;;;;;;5051229;28;46390;-66
2022/01/07 05:07:18;;;;;;;;;5.25;3.00;;;;;;;;5051366;28;45397;-68
2022/01/07 05:09:43;;;;;;;;;4.00;2.25;;;;;;;;5050483;28;45875;-67
2022/01/07 05:12:08;;;;;;;;;3.50;3.50;;;;;;;;5033879;28;45330;-67
2022/01/07 05:14:34;;;;;;;;;3.25;3.00;;;;;;;;5051125;28;46563;-69
2022/01/07 05:16:59;;;;;;;;;5.00;4.25;;;;;;;;5051537;28;45738;-69
2022/01/07 05:19:24;;;;;;;;;6.00;3.75;;;;;;;;5051968;28;45400;-70
2022/01/07 05:21:49;;;;;;;;;2.00;2.00;;;;;;;;5033168;28;45458;-68
2022/01/07 05:24:14;;;;;;;;;2.50;2.50;;;;;;;;5032645;28;48700;-70
2022/01/07 05:26:40;;;;;;;;;4.25;3.00;;;;;;;;5051082;28;45810;-69
2022/01/07 05:29:05;;;;;;;;;6.75;3.50;;;;;;;;5032712;28;46147;-68
2022/01/07 05:31:31;;;;;;;;;4.50;4.50;;;;;;;;5051333;28;45441;-69
2022/01/07 05:33:56;;;;;;;;;5.75;5.25;;;;;;;;5050618;28;46341;-68
2022/01/07 05:36:21;;;;;;;;;3.00;2.50;;;;;;;;5032750;28;46045;-69
2022/01/07 05:38:47;;;;;;;;;6.75;3.00;;;;;;;;5066683;28;45443;-68
2022/01/07 05:41:13;;;;;;;;;3.25;2.75;;;;;;;;5032789;28;47855;-68
2022/01/07 05:43:38;;;;;;;;;3.75;3.75;;;;;;;;5051490;28;46686;-69
2022/01/07 05:46:04;;;;;;;;;3.50;2.25;;;;;;;;5032654;28;45436;-69
2022/01/07 05:48:29;;;;;;;;;7.50;3.00;;;;;;;;5051133;28;45698;-69
2022/01/07 05:50:54;;;;;;;;;6.25;3.50;;;;;;;;5051045;28;45423;-69
2022/01/07 05:53:19;;;;;;;;;6.50;6.50;;;;;;;;5032506;28;47730;-67
2022/01/07 05:55:44;;;;;;;;;2.50;2.50;;;;;;;;5051565;28;45484;-67
2022/01/07 05:58:10;;;;;;;;;5.00;3.00;;;;;;;;5032422;28;45498;-68
2022/01/07 06:00:35;;;;;;;;;4.50;4.50;;;;;;;;5050856;28;45453;-67
2022/01/07 06:03:00;;;;;;;;;5.50;3.00;;;;;;;;5050398;28;46588;-67
2022/01/07 06:05:25;;;;;;;;;3.25;3.25;;;;;;;;5032265;28;46060;-66
2022/01/07 06:07:51;;;;;;;;;3.75;3.00;;;;;;;;5051461;28;45793;-68
2022/01/07 06:10:16;;;;;;;;;3.50;2.50;;;;;;;;5050506;28;45568;-69
2022/01/07 06:12:41;;;;;;;;;4.00;2.25;;;;;;;;5049755;28;46488;-69
2022/01/07 06:15:07;;;;;;;;;6.75;5.25;;;;;;;;5031851;28;45401;-68
2022/01/07 06:17:32;;;;;;;;;7.50;4.25;;;;;;;;5050610;28;45756;-69
2022/01/07 06:19:58;;;;;;;;;3.00;3.00;;;;;;;;5031331;28;46182;-67
2022/01/07 06:22:23;;;;;;;;;11.00;4.25;;;;;;;;5032227;28;46646;-69
2022/01/07 06:24:48;;;;;;;;;6.00;6.00;;;;;;;;5049620;28;45671;-68
2022/01/07 06:27:13;;;;;;;;;15.50;15.50;;;;;;;;5050674;28;45475;-69
2022/01/07 06:29:39;;;;;;;;;10.25;9.50;;;;;;;;5049673;28;45719;-71
2022/01/07 06:32:05;;;;;;;;;8.25;7.25;;;;;;;;5049949;28;46375;-70
2022/01/07 06:34:32;;;;;;;;;5.50;5.50;;;;;;;;5048931;28;45406;-68
2022/01/07 06:36:58;;;;;;;;;4.75;4.75;;;;;;;;5031472;28;45821;-70
2022/01/07 06:39:28;;;;;;;;;4.00;4.00;;;;;;;;5030714;28;45592;-72
2022/01/07 06:41:53;;;;;;;;;9.50;6.75;;;;;;;;5043496;28;45464;-77
2022/01/07 06:44:19;;;;;;;;;7.00;6.00;;;;;;;;5041804;28;45980;-73
2022/01/07 06:46:44;;;;;;;;;4.75;4.50;;;;;;;;5049499;28;45358;-75
2022/01/07 06:49:09;;;;;;;;;7.75;5.50;;;;;;;;5050875;28;45512;-76
2022/01/07 06:51:35;;;;;;;;;6.25;6.00;;;;;;;;5030668;28;47217;-69
2022/01/07 06:54:00;;;;;;;;;7.00;4.25;;;;;;;;5042366;28;45454;-72
2022/01/07 06:56:25;;;;;;;;;6.00;6.00;;;;;;;;5046774;28;45799;-72
2022/01/07 06:58:51;;;;;;;;;7.50;3.50;;;;;;;;5031418;28;45684;-70
2022/01/07 07:01:16;;;;;;;;;4.25;3.00;;;;;;;;5031297;28;48452;-72
2022/01/07 07:03:41;;;;;;;;;6.00;4.25;;;;;;;;5048651;28;45448;-69
2022/01/07 07:06:07;;;;;;;;;6.00;6.00;;;;;;;;5031375;28;45719;-70
2022/01/07 07:08:32;;;;;;;;;8.50;6.00;;;;;;;;5049517;28;46197;-75
2022/01/07 07:10:57;;;;;;;;;3.00;3.00;;;;;;;;5048787;28;46497;-71
2022/01/07 07:13:23;;;;;;;;;3.75;3.75;;;;;;;;5029133;28;45781;-72
2022/01/07 07:15:48;;;;;;;;;3.25;3.25;;;;;;;;5046429;28;46083;-70
2022/01/07 07:18:14;;;;;;;;;4.75;4.75;;;;;;;;5031035;28;45451;-71
2022/01/07 07:20:39;;;;;;;;;6.00;3.00;;;;;;;;5030465;28;47460;-73
2022/01/07 07:23:04;;;;;;;;;6.00;4.50;;;;;;;;5049109;28;45347;-73
2022/01/07 07:25:29;;;;;;;;;6.25;4.00;;;;;;;;5051547;28;45666;-73
2022/01/07 07:27:55;;;;;;;;;9.00;6.00;;;;;;;;5054560;28;46025;-70
2022/01/07 07:30:20;;;;;;;;;4.50;4.50;;;;;;;;5053318;28;45464;-72
2022/01/07 07:32:47;;;;;;;;;4.50;4.50;;;;;;;;5033433;28;45575;-70
2022/01/07 07:36:26;;;;;;;;;7.50;6.25;;;;;;;;5053039;28;45774;-71
2022/01/07 07:37:58;;;;;;;;;6.00;6.00;;;;;;;;5049252;28;45587;-70
2022/01/07 07:40:23;;;;;;;;;7.25;7.25;;;;;;;;5033921;28;47544;-69
2022/01/07 07:42:48;;;;;;;;;6.50;5.25;;;;;;;;5067679;28;45987;-70
2022/01/07 07:45:13;;;;;;;;;8.50;8.25;;;;;;;;5036041;28;45652;-72
2022/01/07 07:47:39;;;;;;;;;7.75;6.50;;;;;;;;5034527;28;45647;-71
2022/01/07 07:50:04;;;;;;;;;6.75;6.75;;;;;;;;5051730;28;45532;-71
2022/01/07 07:52:30;;;;;;;;;6.75;4.00;;;;;;;;5051185;28;45524;-70
2022/01/07 07:54:55;;;;;;;;;6.75;4.00;;;;;;;;5051918;28;45675;-70
2022/01/07 07:57:20;;;;;;;;;8.25;6.00;;;;;;;;5052156;28;45480;-69
2022/01/07 07:59:45;;;;;;;;;4.25;4.25;;;;;;;;5052401;28;45471;-72
2022/01/07 08:02:11;;;;;;;;;4.75;4.75;;;;;;;;5033647;28;45763;-72
2022/01/07 08:04:37;;;;;;;;;6.00;5.50;;;;;;;;5053197;28;45409;-73
2022/01/07 08:07:02;;;;;;;;;5.00;2.25;;;;;;;;5051765;28;45418;-71
2022/01/07 08:09:30;;;;;;;;;4.00;4.00;;;;;;;;5034056;28;47869;-71
2022/01/07 08:12:04;;;;;;;;;4.50;4.25;;;;;;;;5033410;28;46323;-69
2022/01/07 08:17:13;;;;;;;;;5.50;3.25;;;;;;;;5051948;28;45984;-70
2022/01/07 08:19:38;;;;;;;;;2.25;2.25;;;;;;;;5052033;28;45924;-71
2022/01/07 08:22:04;;;;;;;;;3.25;3.00;;;;;;;;5051407;28;45967;-70
2022/01/07 08:24:29;;;;;;;;;5.50;3.00;;;;;;;;5050466;28;45393;-71
2022/01/07 08:26:55;;;;;;;;;4.00;4.00;;;;;;;;5034009;28;45620;-72
2022/01/07 08:29:23;;;;;;;;;1.25;1.25;;;;;;;;5033644;28;47731;-72
2022/01/07 08:36:58;;;;;;;;;7.50;3.00;;;;;;;;5048464;28;46016;-73
2022/01/07 08:39:25;;;;;;;;;3.00;2.00;;;;;;;;5033458;28;47634;-71
2022/01/07 08:41:50;;;;;;;;;2.50;2.00;;;;;;;;5050233;28;45597;-70
2022/01/07 08:44:15;;;;;;;;;1.75;1.75;;;;;;;;5033393;28;45423;-74
2022/01/07 08:46:43;;;;;;;;;1.00;0.00;;;;;;;;5034946;28;45488;-71
2022/01/07 08:49:08;;;;;;;;;1.00;1.00;;;;;;;;5055338;28;45807;-73
2022/01/07 08:51:34;;;;;;;;;1.00;1.00;;;;;;;;5029884;28;45576;-74
2022/01/07 08:53:59;;;;;;;;;0.00;0.00;;;;;;;;5033242;28;45609;-73
2022/01/07 08:56:25;;;;;;;;;2.00;2.00;;;;;;;;5032771;28;45195;-75
2022/01/07 08:58:57;;;;;;;;;1.00;1.00;;;;;;;;5050942;28;46030;-72
2022/01/07 09:01:22;;;;;;;;;1.00;1.00;;;;;;;;5032571;28;45660;-74
2022/01/07 09:03:48;;;;;;;;;10.00;6.75;;;;;;;;5031985;28;45740;-72
2022/01/07 09:06:13;;;;;;;;;2.25;2.00;;;;;;;;5048139;28;46007;-72
2022/01/07 09:08:38;;;;;;;;;4.00;3.00;;;;;;;;5033086;28;48443;-72
2022/01/07 09:11:04;;;;;;;;;11.25;10.00;;;;;;;;5032678;28;46556;-73
2022/01/07 09:13:29;;;;;;;;;8.00;7.00;;;;;;;;5033217;28;45514;-73
2022/01/07 09:15:55;;;;;;;;;6.50;3.25;;;;;;;;5051682;28;45769;-73
2022/01/07 09:18:21;;;;;;;;;0.00;0.00;;;;;;;;5030103;28;47484;-73
2022/01/07 09:20:46;;;;;;;;;0.00;0.00;;;;;;;;5045009;28;45810;-74
2022/01/07 09:23:12;;;;;;;;;1.00;1.00;;;;;;;;5032807;28;45457;-72
2022/01/07 09:25:38;;;;;;;;;2.00;1.00;;;;;;;;5051822;28;45564;-75
2022/01/07 09:28:05;;;;;;;;;5.50;5.50;;;;;;;;5050909;28;46405;-73
2022/01/07 09:30:30;;;;;;;;;2.75;1.75;;;;;;;;5050662;28;45675;-72
2022/01/07 09:32:55;;;;;;;;;2.25;1.00;;;;;;;;5050423;28;46083;-72
2022/01/07 09:35:20;;;;;;;;;1.00;1.00;;;;;;;;5050238;28;45966;-71
2022/01/07 09:37:46;;;;;;;;;0.50;0.50;;;;;;;;5033066;28;47423;-72
2022/01/07 09:40:12;;;;;;;;;1.75;1.75;;;;;;;;5030264;28;45420;-71
2022/01/07 09:42:38;;;;;;;;;1.00;1.00;;;;;;;;5050928;28;45535;-73
2022/01/07 09:45:04;;;;;;;;;1.75;0.25;;;;;;;;5032696;28;45987;-71
2022/01/07 09:47:29;;;;;;;;;2.00;1.00;;;;;;;;5050828;28;45734;-74
2022/01/07 09:49:54;;;;;;;;;3.25;3.25;;;;;;;;5050964;28;45522;-73
2022/01/07 09:52:19;;;;;;;;;1.75;1.25;;;;;;;;5050869;28;45536;-73
2022/01/07 09:54:46;;;;;;;;;3.00;2.00;;;;;;;;5032728;28;45638;-71
2022/01/07 09:57:12;;;;;;;;;2.00;2.00;;;;;;;;5031717;28;48769;-72
2022/01/07 09:59:37;;;;;;;;;3.00;3.00;;;;;;;;5032085;28;45547;-71
2022/01/07 10:02:07;;;;;;;;;2.00;1.00;;;;;;;;5050330;28;45461;-72
2022/01/07 10:04:36;;;;;;;;;2.50;1.00;;;;;;;;5060204;28;45399;-74
2022/01/07 10:07:11;;;;;;;;;0.75;0.75;;;;;;;;5052645;28;45436;-73
2022/01/07 10:09:37;;;;;;;;;2.00;1.00;;;;;;;;5053731;28;45524;-74
2022/01/07 10:12:02;;;;;;;;;3.00;1.00;;;;;;;;5050616;28;45630;-73
2022/01/07 10:14:30;;;;;;;;;1.00;1.00;;;;;;;;5031863;28;45551;-72
2022/01/07 10:16:59;;;;;;;;;6.50;4.75;;;;;;;;5050536;28;45848;-73
2022/01/07 10:19:34;;;;;;;;;1.00;1.00;;;;;;;;5046846;28;45428;-72
2022/01/07 10:22:02;;;;;;;;;10.25;8.50;;;;;;;;5031808;28;46049;-72
2022/01/07 10:24:27;;;;;;;;;10.00;8.75;;;;;;;;5031706;28;45572;-73
2022/01/07 10:27:08;;;;;;;;;66.25;52.75;;;;;;;;5065307;27;48735;-70
2022/01/07 10:29:37;;;;;;;;;4.75;4.00;;;;;;;;5050115;28;45634;-71
2022/01/07 10:32:22;;;;;;;;;11.00;10.50;;;;;;;;5049781;28;45785;-72
2022/01/07 10:35:08;;;;;;;;;2.50;2.50;;;;;;;;5050305;28;45564;-73
2022/01/07 10:37:34;;;;;;;;;10.25;10.25;;;;;;;;5065314;28;47448;-70
2022/01/07 10:39:59;;;;;;;;;2.75;2.50;;;;;;;;5049089;28;45507;-73
2022/01/07 10:42:25;;;;;;;;;3.75;3.25;;;;;;;;5031599;28;45798;-73
2022/01/07 10:45:00;;;;;;;;;5.75;4.00;;;;;;;;5049814;28;45424;-72
2022/01/07 10:47:26;;;;;;;;;8.00;6.00;;;;;;;;5033595;28;46320;-75
2022/01/07 10:50:11;;;;;;;;;3.00;1.25;;;;;;;;5031675;28;45515;-71
2022/01/07 10:52:36;;;;;;;;;0.25;0.25;;;;;;;;5047109;28;45428;-74
2022/01/07 10:55:09;;;;;;;;;2.00;2.00;;;;;;;;5049798;28;45529;-72
2022/01/07 10:57:35;;;;;;;;;2.00;1.00;;;;;;;;5031152;28;47706;-73
2022/01/07 11:00:07;;;;;;;;;0.00;0.00;;;;;;;;5048891;28;45363;-71
2022/01/07 11:02:34;;;;;;;;;1.00;1.00;;;;;;;;5050955;28;45615;-73
2022/01/07 11:04:59;;;;;;;;;0.75;0.75;;;;;;;;5048788;28;45761;-73
2022/01/07 11:07:24;;;;;;;;;2.00;2.00;;;;;;;;5029681;28;49022;-73
2022/01/07 11:09:50;;;;;;;;;1.25;0.00;;;;;;;;5048343;28;45624;-74
2022/01/07 11:12:17;;;;;;;;;1.00;0.75;;;;;;;;5033361;28;45545;-74
2022/01/07 11:14:42;;;;;;;;;5.00;3.75;;;;;;;;5045059;28;45849;-73
2022/01/07 11:17:10;;;;;;;;;5.00;4.75;;;;;;;;5029598;28;47348;-71
2022/01/07 11:19:37;;;;;;;;;6.50;5.00;;;;;;;;5042277;28;45750;-73
2022/01/07 11:22:03;;;;;;;;;2.75;2.00;;;;;;;;5034035;28;45573;-74
2022/01/07 11:24:35;;;;;;;;;2.25;2.25;;;;;;;;5045784;28;45911;-71
2022/01/07 11:27:02;;;;;;;;;3.50;3.50;;;;;;;;5029953;28;48382;-71
2022/01/07 11:29:28;;;;;;;;;7.00;4.00;;;;;;;;5032820;28;45673;-70
2022/01/07 11:31:54;;;;;;;;;1.00;1.00;;;;;;;;5050535;28;45403;-71
2022/01/07 11:34:19;;;;;;;;;1.75;1.75;;;;;;;;5015615;28;45704;-72
2022/01/07 11:36:44;;;;;;;;;1.00;1.00;;;;;;;;5031034;28;47599;-73
2022/01/07 11:39:10;;;;;;;;;2.00;0.75;;;;;;;;5042804;28;46971;-74
2022/01/07 11:41:41;;;;;;;;;1.00;1.00;;;;;;;;5046518;28;45571;-68
2022/01/07 11:44:13;;;;;;;;;5.00;3.00;;;;;;;;5044770;28;45483;-72
2022/01/07 11:46:39;;;;;;;;;3.00;3.00;;;;;;;;5049724;28;45701;-70
2022/01/07 11:49:04;;;;;;;;;0.00;0.00;;;;;;;;5036288;28;45673;-70
2022/01/07 11:51:40;;;;;;;;;3.75;1.00;;;;;;;;5070137;27;45960;-71
2022/01/07 11:54:06;;;;;;;;;1.75;1.50;;;;;;;;5028679;28;45569;-71
2022/01/07 11:56:32;;;;;;;;;3.75;0.00;;;;;;;;5049402;28;46403;-70
2022/01/07 11:58:59;;;;;;;;;0.00;0.00;;;;;;;;5053324;28;45828;-75
2022/01/07 12:01:27;;;;;;;;;1.00;1.00;;;;;;;;5032928;28;46212;-75
2022/01/07 12:03:53;;;;;;;;;1.00;1.00;;;;;;;;5034306;28;45714;-73
2022/01/07 12:06:25;;;;;;;;;3.75;2.75;;;;;;;;5034240;28;47548;-73
2022/01/07 12:09:00;;;;;;;;;1.00;1.00;;;;;;;;5050472;28;45447;-73
2022/01/07 12:11:26;;;;;;;;;5.00;1.50;;;;;;;;5034791;28;45656;-74
2022/01/07 12:13:51;;;;;;;;;2.50;2.50;;;;;;;;5036045;28;45683;-73
2022/01/07 12:16:20;;;;;;;;;0.50;0.50;;;;;;;;5049987;28;46126;-74
2022/01/07 12:18:46;;;;;;;;;2.00;0.00;;;;;;;;5048932;28;45442;-73
2022/01/07 12:21:11;;;;;;;;;3.00;2.00;;;;;;;;5028225;28;45583;-73
2022/01/07 12:23:37;;;;;;;;;2.00;1.25;;;;;;;;5049194;28;45793;-73
2022/01/07 12:26:03;;;;;;;;;1.00;1.00;;;;;;;;5033029;28;46956;-73
2022/01/07 12:28:34;;;;;;;;;1.50;0.75;;;;;;;;5049512;28;45558;-72
2022/01/07 12:31:06;;;;;;;;;2.00;2.00;;;;;;;;5048184;28;45603;-72
2022/01/07 12:33:32;;;;;;;;;1.00;1.00;;;;;;;;5048374;28;45447;-73
2022/01/07 12:35:57;;;;;;;;;2.25;1.00;;;;;;;;5056973;28;46266;-72
2022/01/07 12:38:22;;;;;;;;;0.50;0.50;;;;;;;;5055917;28;45665;-74
2022/01/07 12:40:51;;;;;;;;;2.25;0.00;;;;;;;;5017814;28;45461;-71
2022/01/07 12:43:18;;;;;;;;;2.75;0.75;;;;;;;;5028847;28;46008;-72
2022/01/07 12:45:53;;;;;;;;;1.00;1.00;;;;;;;;5044752;28;45855;-72
2022/01/07 12:48:29;;;;;;;;;1.00;1.00;;;;;;;;5033701;28;46152;-72
2022/01/07 12:50:58;;;;;;;;;1.25;0.25;;;;;;;;5034186;28;45554;-72
2022/01/07 12:53:24;;;;;;;;;4.50;4.50;;;;;;;;5035065;28;45554;-72
2022/01/07 12:55:49;;;;;;;;;2.75;2.75;;;;;;;;5052285;28;46411;-70
2022/01/07 12:58:25;;;;;;;;;2.50;1.50;;;;;;;;5048998;28;45743;-71
2022/01/07 13:00:51;;;;;;;;;2.00;1.00;;;;;;;;5049430;28;45667;-73
2022/01/07 13:03:16;;;;;;;;;2.00;1.00;;;;;;;;5049254;28;45752;-71
2022/01/07 13:05:44;;;;;;;;;1.00;1.00;;;;;;;;5055248;28;45501;-69
2022/01/07 13:08:11;;;;;;;;;0.00;0.00;;;;;;;;5035029;28;46593;-72
2022/01/07 13:10:37;;;;;;;;;1.25;1.00;;;;;;;;5051437;28;45401;-71
2022/01/07 13:13:04;;;;;;;;;0.25;0.00;;;;;;;;5048972;28;45593;-72
2022/01/07 13:15:40;;;;;;;;;2.50;2.00;;;;;;;;5033328;28;48061;-71
2022/01/07 13:18:17;;;;;;;;;6.50;6.50;;;;;;;;5029162;28;48147;-72
2022/01/07 13:20:43;;;;;;;;;0.50;0.50;;;;;;;;5039009;28;45540;-74
2022/01/07 13:23:08;;;;;;;;;3.25;2.00;;;;;;;;5020187;28;45810;-72
2022/01/07 13:25:34;;;;;;;;;0.00;0.00;;;;;;;;5050433;28;45484;-71
2022/01/07 13:28:00;;;;;;;;;0.25;0.00;;;;;;;;5033235;28;47993;-73
2022/01/07 13:30:35;;;;;;;;;0.75;0.75;;;;;;;;5048266;28;45492;-74
2022/01/07 13:33:10;;;;;;;;;1.50;1.00;;;;;;;;5028404;28;45696;-72
2022/01/07 13:35:36;;;;;;;;;1.00;1.00;;;;;;;;5030271;28;48591;-72
2022/01/07 13:38:02;;;;;;;;;2.50;1.00;;;;;;;;5050649;28;45537;-72
2022/01/07 13:40:29;;;;;;;;;2.50;2.50;;;;;;;;5050389;28;46026;-74
2022/01/07 13:43:14;;;;;;;;;1.00;1.00;;;;;;;;5032748;28;45664;-73
2022/01/07 13:45:40;;;;;;;;;1.00;1.00;;;;;;;;5049294;28;45921;-73
2022/01/07 13:48:07;;;;;;;;;0.50;0.00;;;;;;;;5030828;28;46212;-74
2022/01/07 13:50:33;;;;;;;;;1.75;1.75;;;;;;;;5046800;28;45481;-74
2022/01/07 13:53:10;;;;;;;;;1.00;1.00;;;;;;;;5051023;28;45432;-71
2022/01/07 13:55:36;;;;;;;;;1.00;0.00;;;;;;;;5028537;28;46385;-73
2022/01/07 13:58:13;;;;;;;;;0.00;0.00;;;;;;;;5045735;28;45560;-71
2022/01/07 14:00:39;;;;;;;;;1.00;0.00;;;;;;;;5047615;28;45798;-75
2022/01/07 14:03:05;;;;;;;;;1.00;1.00;;;;;;;;5047949;28;45654;-74
2022/01/07 14:05:30;;;;;;;;;0.00;0.00;;;;;;;;5031894;28;48313;-74
2022/01/07 14:07:56;;;;;;;;;3.00;1.00;;;;;;;;5032707;28;45609;-70
2022/01/07 14:10:28;;;;;;;;;0.25;0.00;;;;;;;;5032515;28;45391;-75
2022/01/07 14:12:53;;;;;;;;;1.25;1.00;;;;;;;;5030728;28;45395;-75
2022/01/07 14:15:21;;;;;;;;;0.50;0.00;;;;;;;;5031132;28;47727;-74
2022/01/07 14:17:47;;;;;;;;;0.00;0.00;;;;;;;;5044037;28;45541;-73
2022/01/07 14:20:13;;;;;;;;;2.75;2.00;;;;;;;;5029839;28;48192;-73
2022/01/07 14:22:47;;;;;;;;;1.00;1.00;;;;;;;;5047505;28;45675;-75
2022/01/07 14:25:14;;;;;;;;;0.00;0.00;;;;;;;;5037056;28;45454;-75
2022/01/07 14:27:41;;;;;;;;;0.00;0.00;;;;;;;;5046280;28;45518;-73
2022/01/07 14:30:08;;;;;;;;;0.00;0.00;;;;;;;;5047437;28;45490;-74
2022/01/07 14:32:34;;;;;;;;;0.75;0.25;;;;;;;;5049227;28;45350;-74
2022/01/07 14:35:00;;;;;;;;;0.00;0.00;;;;;;;;5049992;28;45473;-74
2022/01/07 14:37:27;;;;;;;;;2.50;0.00;;;;;;;;5048270;28;45383;-73
2022/01/07 14:39:53;;;;;;;;;0.00;0.00;;;;;;;;5047739;28;45591;-73
2022/01/07 14:42:18;;;;;;;;;1.50;0.25;;;;;;;;5045156;28;45687;-73